Time;durP1;ratioP1;P1;durP2;ratioP2;P2;SDS_P1;SDS_P2;PMS_P1;PMS_P2;Temp;Humidity;BMP_temperature;BMP_pressure;BME280_temperature;BME280_humidity;BME280_pressure;Samples;Min_cycle;Max_cycle;Signal;HPM_P1;HPM_P2
2024/02/02 00:02:24;;;;;;;10.00;3.77;;;4.40;99.90;;;;;;5051958;28;20033;-51
2024/02/02 00:04:50;;;;;;;10.47;3.17;;;4.40;99.90;;;;;;5052131;28;20037;-51
2024/02/02 00:07:15;;;;;;;13.67;3.60;;;4.50;99.90;;;;;;5051791;28;20393;-51
2024/02/02 00:09:41;;;;;;;16.73;4.07;;;4.40;99.90;;;;;;5051860;28;20469;-50
2024/02/02 00:12:11;;;;;;;12.97;3.57;;;4.50;99.90;;;;;;5051906;28;20036;-53
2024/02/02 00:14:37;;;;;;;22.83;4.20;;;4.50;99.90;;;;;;5051977;28;20041;-52
2024/02/02 00:17:04;;;;;;;14.57;3.80;;;4.50;99.90;;;;;;5051733;28;20095;-51
2024/02/02 00:19:30;;;;;;;15.07;4.43;;;4.40;99.90;;;;;;5051737;28;20075;-51
2024/02/02 00:21:56;;;;;;;15.73;3.67;;;4.40;99.90;;;;;;5050558;28;20040;-53
2024/02/02 00:24:21;;;;;;;12.83;3.70;;;4.50;99.90;;;;;;5051490;28;20481;-54
2024/02/02 00:26:47;;;;;;;15.33;4.13;;;4.50;99.90;;;;;;5051865;28;20149;-51
2024/02/02 00:29:14;;;;;;;13.63;3.60;;;4.50;99.90;;;;;;5051590;28;20041;-52
2024/02/02 00:31:40;;;;;;;17.93;3.90;;;4.60;99.90;;;;;;5051716;28;20037;-50
2024/02/02 00:34:06;;;;;;;18.10;4.43;;;4.50;99.90;;;;;;5051539;28;20079;-53
2024/02/02 00:36:31;;;;;;;16.47;4.67;;;4.50;99.90;;;;;;5051478;28;20053;-53
2024/02/02 00:38:57;;;;;;;13.33;3.57;;;4.50;99.90;;;;;;5051514;28;20033;-51
2024/02/02 00:41:23;;;;;;;14.47;4.03;;;4.50;99.90;;;;;;5051575;28;20032;-53
2024/02/02 00:43:48;;;;;;;16.37;4.30;;;4.40;99.90;;;;;;5051531;28;20474;-51
2024/02/02 00:46:14;;;;;;;16.23;4.10;;;4.50;99.90;;;;;;5051473;28;20123;-53
2024/02/02 00:48:39;;;;;;;18.13;4.63;;;4.40;99.90;;;;;;5051469;28;20036;-51
2024/02/02 00:51:05;;;;;;;15.37;4.10;;;4.40;99.90;;;;;;5052264;28;20479;-52
2024/02/02 00:53:30;;;;;;;11.97;4.23;;;4.50;99.90;;;;;;5055485;28;20032;-49
2024/02/02 00:55:56;;;;;;;12.27;4.13;;;4.60;99.90;;;;;;5054228;28;20079;-52
2024/02/02 00:58:22;;;;;;;11.30;4.23;;;4.60;99.90;;;;;;5055294;28;20052;-53
2024/02/02 01:00:47;;;;;;;14.97;4.33;;;4.60;99.90;;;;;;5055290;28;20091;-50
2024/02/02 01:03:13;;;;;;;15.10;4.43;;;4.60;99.90;;;;;;5055244;28;20029;-52
2024/02/02 01:05:38;;;;;;;21.50;4.60;;;4.50;99.90;;;;;;5055284;28;20036;-53
2024/02/02 01:08:05;;;;;;;14.23;4.53;;;4.50;99.90;;;;;;5053858;28;20410;-54
2024/02/02 01:10:31;;;;;;;15.10;4.37;;;4.40;99.90;;;;;;5055045;28;20118;-49
2024/02/02 01:12:56;;;;;;;18.57;4.17;;;4.40;99.90;;;;;;5055171;28;20048;-53
2024/02/02 01:15:22;;;;;;;21.00;6.23;;;4.40;99.90;;;;;;5055063;28;20542;-53
2024/02/02 01:17:48;;;;;;;14.50;4.50;;;4.50;99.90;;;;;;5054961;28;20029;-50
2024/02/02 01:20:15;;;;;;;16.10;4.87;;;4.50;99.90;;;;;;5054932;28;20082;-52
2024/02/02 01:22:41;;;;;;;18.63;5.53;;;4.40;99.90;;;;;;5054882;28;20037;-52
2024/02/02 01:25:09;;;;;;;20.60;5.93;;;4.40;99.90;;;;;;5054876;28;20045;-50
2024/02/02 01:27:35;;;;;;;19.83;5.20;;;4.40;99.90;;;;;;5054899;28;20401;-50
2024/02/02 01:30:01;;;;;;;20.43;4.83;;;4.50;99.90;;;;;;5055075;28;20029;-49
2024/02/02 01:32:27;;;;;;;15.03;4.60;;;4.50;99.90;;;;;;5055234;28;20082;-50
2024/02/02 01:34:52;;;;;;;20.53;5.00;;;4.50;99.90;;;;;;5055216;28;20029;-53
2024/02/02 01:37:18;;;;;;;16.00;4.50;;;4.60;99.90;;;;;;5055001;28;20500;-51
2024/02/02 01:39:44;;;;;;;13.33;4.80;;;4.70;99.90;;;;;;5055057;28;20064;-50
2024/02/02 01:42:10;;;;;;;15.67;4.00;;;4.70;99.90;;;;;;5055231;28;20470;-50
2024/02/02 01:44:35;;;;;;;17.13;4.77;;;4.80;99.90;;;;;;5055812;28;20037;-50
2024/02/02 01:47:02;;;;;;;14.33;4.30;;;4.90;99.90;;;;;;5056076;28;20039;-51
2024/02/02 01:49:28;;;;;;;13.50;4.37;;;4.90;99.90;;;;;;5055867;28;20029;-54
2024/02/02 01:51:54;;;;;;;16.43;4.30;;;4.80;99.90;;;;;;5058775;28;20125;-51
2024/02/02 01:54:20;;;;;;;12.90;4.57;;;4.80;99.90;;;;;;5057253;28;20481;-51
2024/02/02 01:56:46;;;;;;;14.67;4.73;;;4.80;99.90;;;;;;5037632;28;20029;-55
2024/02/02 01:59:12;;;;;;;20.93;4.80;;;4.80;99.90;;;;;;5054269;28;20033;-54
2024/02/02 02:01:37;;;;;;;25.23;5.07;;;4.80;99.90;;;;;;5054307;28;20106;-53
2024/02/02 02:04:03;;;;;;;15.53;4.63;;;4.80;99.90;;;;;;5053209;28;20478;-54
2024/02/02 02:06:29;;;;;;;11.27;3.83;;;4.80;99.90;;;;;;5053947;28;20036;-54
2024/02/02 02:08:55;;;;;;;13.70;4.80;;;4.80;99.90;;;;;;5054380;28;20537;-55
2024/02/02 02:11:20;;;;;;;14.20;4.20;;;4.90;99.90;;;;;;5054114;28;20124;-54
2024/02/02 02:13:46;;;;;;;17.20;4.67;;;4.90;99.90;;;;;;5053881;28;20068;-54
2024/02/02 02:16:11;;;;;;;12.27;4.17;;;4.90;99.90;;;;;;5052775;28;20044;-54
2024/02/02 02:18:37;;;;;;;16.83;4.43;;;5.00;99.90;;;;;;5053868;28;20029;-52
2024/02/02 02:21:26;;;;;;;15.23;4.53;;;5.00;99.90;;;;;;5053782;28;20025;-53
2024/02/02 02:23:52;;;;;;;20.13;4.88;;;5.00;99.90;;;;;;5053851;28;20045;-51
2024/02/02 02:26:18;;;;;;;19.37;4.33;;;5.00;99.90;;;;;;5053770;28;20132;-53
2024/02/02 02:28:45;;;;;;;18.60;4.53;;;5.00;99.90;;;;;;5052567;28;20497;-54
2024/02/02 02:31:14;;;;;;;12.40;4.70;;;5.00;99.90;;;;;;5053641;28;20355;-50
2024/02/02 02:33:40;;;;;;;16.13;5.05;;;5.00;99.90;;;;;;5053526;28;20150;-53
2024/02/02 02:36:07;;;;;;;14.20;4.47;;;5.00;99.90;;;;;;5053504;28;20044;-51
2024/02/02 02:38:33;;;;;;;18.27;4.27;;;5.00;99.90;;;;;;5053427;28;20025;-55
2024/02/02 02:40:59;;;;;;;13.50;3.43;;;5.10;99.90;;;;;;5053460;28;20029;-49
2024/02/02 02:43:27;;;;;;;14.50;4.60;;;5.30;99.90;;;;;;5053452;28;20500;-50
2024/02/02 02:45:54;;;;;;;15.20;4.00;;;5.40;99.90;;;;;;5052345;28;20037;-53
2024/02/02 02:48:19;;;;;;;15.10;4.57;;;5.40;99.90;;;;;;5053313;28;20037;-53
2024/02/02 02:50:45;;;;;;;16.70;3.73;;;5.30;99.90;;;;;;5053166;28;20041;-52
2024/02/02 02:53:10;;;;;;;22.50;5.00;;;5.40;99.90;;;;;;5053204;28;20367;-54
2024/02/02 02:55:36;;;;;;;19.13;5.43;;;5.40;99.90;;;;;;5052003;28;20520;-54
2024/02/02 02:58:02;;;;;;;12.17;3.53;;;5.40;99.90;;;;;;5052960;28;20066;-54
2024/02/02 03:00:29;;;;;;;14.50;4.60;;;5.50;99.90;;;;;;5053111;28;20464;-54
2024/02/02 03:02:55;;;;;;;15.30;4.20;;;5.60;99.90;;;;;;5053026;28;20043;-54
2024/02/02 03:05:21;;;;;;;11.97;4.37;;;5.60;99.90;;;;;;5053018;28;20028;-53
2024/02/02 03:07:46;;;;;;;14.50;5.13;;;5.70;99.90;;;;;;5051557;28;20446;-53
2024/02/02 03:10:12;;;;;;;9.30;3.57;;;5.60;99.90;;;;;;5052880;28;20505;-51
2024/02/02 03:12:38;;;;;;;13.87;4.23;;;5.60;99.90;;;;;;5053543;28;20124;-48
2024/02/02 03:15:04;;;;;;;13.23;4.00;;;5.60;99.90;;;;;;5053238;28;20032;-53
2024/02/02 03:17:29;;;;;;;13.23;3.60;;;5.60;99.90;;;;;;5052719;28;20021;-53
2024/02/02 03:19:55;;;;;;;15.83;4.03;;;5.60;99.90;;;;;;5053207;28;20362;-53
2024/02/02 03:22:20;;;;;;;16.93;4.67;;;5.60;99.90;;;;;;5052833;28;20024;-53
2024/02/02 03:24:46;;;;;;;15.67;3.77;;;5.70;99.90;;;;;;5052669;28;20489;-53
2024/02/02 03:27:12;;;;;;;12.90;3.90;;;5.60;99.90;;;;;;5052576;28;20043;-53
2024/02/02 03:29:37;;;;;;;19.20;4.00;;;5.50;99.90;;;;;;5052509;28;20071;-53
2024/02/02 03:32:03;;;;;;;12.97;3.23;;;5.50;99.90;;;;;;5052551;28;20040;-53
2024/02/02 03:34:29;;;;;;;18.43;4.00;;;5.50;99.90;;;;;;5052253;28;20114;-53
2024/02/02 03:36:54;;;;;;;14.47;3.53;;;5.50;99.90;;;;;;5052426;28;20035;-53
2024/02/02 03:39:20;;;;;;;15.40;3.43;;;5.60;99.90;;;;;;5052335;28;20047;-53
2024/02/02 03:41:46;;;;;;;10.57;3.53;;;5.60;99.90;;;;;;5052391;28;20036;-53
2024/02/02 03:44:12;;;;;;;12.73;3.37;;;5.70;99.90;;;;;;5052357;28;20025;-52
2024/02/02 03:46:37;;;;;;;9.40;3.60;;;5.70;99.90;;;;;;5052242;28;20079;-53
2024/02/02 03:49:03;;;;;;;13.83;3.13;;;5.70;99.90;;;;;;5050777;28;20086;-54
2024/02/02 03:51:28;;;;;;;11.73;3.73;;;5.70;99.90;;;;;;5052436;28;20061;-54
2024/02/02 03:53:54;;;;;;;20.77;4.07;;;5.70;99.90;;;;;;5052095;28;20057;-54
2024/02/02 03:56:19;;;;;;;19.07;4.87;;;5.70;99.90;;;;;;5052027;28;20021;-54
2024/02/02 03:58:45;;;;;;;19.50;4.43;;;5.80;99.90;;;;;;5052105;28;20025;-54
2024/02/02 04:01:11;;;;;;;13.37;4.10;;;5.70;99.90;;;;;;5052051;28;20103;-52
2024/02/02 04:03:36;;;;;;;17.43;4.40;;;5.70;99.90;;;;;;5051885;28;20032;-54
2024/02/02 04:06:02;;;;;;;13.83;4.17;;;5.70;99.90;;;;;;5051949;28;20037;-55
2024/02/02 04:08:28;;;;;;;15.90;3.60;;;5.60;99.90;;;;;;5052027;28;20040;-53
2024/02/02 04:10:54;;;;;;;14.97;4.00;;;5.60;99.90;;;;;;5050800;28;20132;-54
2024/02/02 04:13:19;;;;;;;18.77;4.30;;;5.50;99.90;;;;;;5051730;28;20086;-54
2024/02/02 04:15:45;;;;;;;14.13;3.30;;;5.50;99.90;;;;;;5051867;28;20028;-54
2024/02/02 04:18:11;;;;;;;17.83;3.87;;;5.50;99.90;;;;;;5052077;28;20071;-52
2024/02/02 04:20:36;;;;;;;14.53;3.47;;;5.50;99.90;;;;;;5051824;28;20037;-50
2024/02/02 04:23:02;;;;;;;12.87;3.57;;;5.50;99.90;;;;;;5051668;28;20024;-54
2024/02/02 04:25:28;;;;;;;12.83;3.67;;;5.40;99.90;;;;;;5051404;28;20154;-54
2024/02/02 04:27:53;;;;;;;10.43;3.33;;;5.40;99.90;;;;;;5051324;28;20033;-53
2024/02/02 04:30:19;;;;;;;19.67;4.47;;;5.40;99.90;;;;;;5051709;28;20039;-53
2024/02/02 04:32:45;;;;;;;15.70;4.10;;;5.50;99.90;;;;;;5051363;28;20044;-53
2024/02/02 04:35:10;;;;;;;12.53;4.00;;;5.50;99.90;;;;;;5051620;28;20116;-50
2024/02/02 04:37:38;;;;;;;15.70;3.90;;;5.40;99.90;;;;;;5051455;28;20466;-53
2024/02/02 04:40:05;;;;;;;12.67;3.43;;;5.40;99.90;;;;;;5051525;28;20044;-53
2024/02/02 04:42:31;;;;;;;11.53;2.63;;;5.40;99.90;;;;;;5051593;28;20358;-52
2024/02/02 04:44:58;;;;;;;10.87;3.23;;;5.50;99.90;;;;;;5051463;28;20040;-53
2024/02/02 04:47:24;;;;;;;14.10;2.90;;;5.60;99.90;;;;;;5051359;28;20033;-53
2024/02/02 04:49:50;;;;;;;15.40;2.73;;;5.60;99.90;;;;;;5051326;28;20037;-52
2024/02/02 04:52:15;;;;;;;11.53;3.17;;;5.60;99.90;;;;;;5050233;28;20091;-54
2024/02/02 04:54:41;;;;;;;12.13;2.97;;;5.60;99.90;;;;;;5051355;28;20048;-55
2024/02/02 04:57:06;;;;;;;15.23;3.57;;;5.60;99.90;;;;;;5051333;28;20029;-54
2024/02/02 04:59:33;;;;;;;11.40;3.10;;;5.60;99.90;;;;;;5051358;28;20522;-54
2024/02/02 05:01:59;;;;;;;9.03;2.87;;;5.60;99.90;;;;;;5052037;28;20029;-52
2024/02/02 05:04:24;;;;;;;12.17;3.20;;;5.50;99.90;;;;;;5051555;28;20033;-51
2024/02/02 05:06:50;;;;;;;12.00;3.17;;;5.60;99.90;;;;;;5051479;28;20040;-51
2024/02/02 05:09:16;;;;;;;14.27;2.73;;;5.60;99.90;;;;;;5051589;28;20036;-49
2024/02/02 05:11:41;;;;;;;14.13;3.07;;;5.60;99.90;;;;;;5051555;28;20033;-49
2024/02/02 05:14:07;;;;;;;14.27;3.13;;;5.50;99.90;;;;;;5051341;28;20102;-53
2024/02/02 05:16:33;;;;;;;12.67;3.27;;;5.50;99.90;;;;;;5051903;28;20033;-49
2024/02/02 05:18:58;;;;;;;17.47;3.70;;;5.60;99.90;;;;;;5051609;28;20033;-49
2024/02/02 05:21:24;;;;;;;11.13;3.07;;;5.60;99.90;;;;;;5051290;28;20031;-50
2024/02/02 05:23:49;;;;;;;11.83;3.23;;;5.60;99.90;;;;;;5051583;28;20036;-49
2024/02/02 05:26:16;;;;;;;15.63;3.50;;;5.60;99.90;;;;;;5051159;28;20033;-51
2024/02/02 05:28:41;;;;;;;13.57;3.47;;;5.70;99.90;;;;;;5051273;28;20115;-49
2024/02/02 05:31:07;;;;;;;15.43;3.07;;;5.60;99.90;;;;;;5051228;28;20071;-51
2024/02/02 05:33:32;;;;;;;10.30;3.20;;;5.60;99.90;;;;;;5051360;28;20052;-50
2024/02/02 05:35:58;;;;;;;11.13;3.87;;;5.60;99.90;;;;;;5051194;28;20037;-54
2024/02/02 05:38:23;;;;;;;10.43;2.80;;;5.60;99.90;;;;;;5052336;28;20033;-54
2024/02/02 05:40:49;;;;;;;12.13;3.10;;;5.60;99.90;;;;;;5054657;28;20029;-52
2024/02/02 05:43:15;;;;;;;14.13;2.80;;;5.70;99.90;;;;;;5053413;28;20531;-53
2024/02/02 05:45:40;;;;;;;12.97;3.23;;;5.60;99.90;;;;;;5054626;28;20113;-53
2024/02/02 05:48:06;;;;;;;12.07;3.37;;;5.60;99.90;;;;;;5054487;28;20040;-53
2024/02/02 05:50:32;;;;;;;10.23;2.73;;;5.60;99.90;;;;;;5054580;28;20059;-51
2024/02/02 05:52:57;;;;;;;12.63;2.77;;;5.70;99.90;;;;;;5054642;28;20033;-54
2024/02/02 05:55:23;;;;;;;13.93;3.93;;;5.60;99.90;;;;;;5053346;28;20028;-53
2024/02/02 05:57:49;;;;;;;16.17;4.07;;;5.60;99.90;;;;;;5053108;28;20370;-53
2024/02/02 06:00:18;;;;;;;17.23;4.40;;;5.50;99.90;;;;;;5054453;28;20029;-54
2024/02/02 06:02:46;;;;;;;15.75;4.97;;;5.50;99.90;;;;;;5054431;28;20037;-53
2024/02/02 06:05:13;;;;;;;10.65;2.75;;;5.50;99.90;;;;;;5054479;28;20033;-53
2024/02/02 06:07:38;;;;;;;15.70;3.43;;;5.50;99.90;;;;;;5054260;28;20043;-53
2024/02/02 06:10:04;;;;;;;15.93;4.07;;;5.50;99.90;;;;;;5054307;28;20115;-51
2024/02/02 06:12:30;;;;;;;12.00;4.47;;;5.50;99.90;;;;;;5053085;28;20117;-54
2024/02/02 06:14:55;;;;;;;13.47;3.20;;;5.50;99.90;;;;;;5054287;28;20459;-53
2024/02/02 06:17:21;;;;;;;18.97;4.43;;;5.50;99.90;;;;;;5054220;28;20029;-54
2024/02/02 06:19:47;;;;;;;15.23;3.50;;;5.50;99.90;;;;;;5054224;28;20436;-52
2024/02/02 06:22:12;;;;;;;23.53;4.77;;;5.50;99.90;;;;;;5054105;28;20029;-53
2024/02/02 06:24:38;;;;;;;11.70;4.10;;;5.50;99.90;;;;;;5053985;28;20128;-53
2024/02/02 06:27:04;;;;;;;20.27;4.13;;;5.50;99.90;;;;;;5053843;28;20036;-51
2024/02/02 06:29:32;;;;;;;18.70;4.67;;;5.50;99.90;;;;;;5054307;28;20052;-54
2024/02/02 06:31:58;;;;;;;20.27;4.93;;;5.50;99.90;;;;;;5053870;28;20053;-54
2024/02/02 06:34:23;;;;;;;20.10;4.93;;;5.50;99.90;;;;;;5053761;28;20039;-54
2024/02/02 06:36:49;;;;;;;24.40;5.43;;;5.50;99.90;;;;;;5053952;28;20355;-54
2024/02/02 06:39:15;;;;;;;25.03;5.13;;;5.50;99.90;;;;;;5053571;28;20033;-53
2024/02/02 06:41:40;;;;;;;12.57;3.53;;;5.50;99.90;;;;;;5053586;28;20029;-53
2024/02/02 06:44:06;;;;;;;17.03;4.83;;;5.50;99.90;;;;;;5053457;28;20036;-54
2024/02/02 06:46:31;;;;;;;12.73;3.97;;;5.50;99.90;;;;;;5053651;28;20056;-54
2024/02/02 06:48:57;;;;;;;15.37;4.13;;;5.50;99.90;;;;;;5053826;28;20083;-49
2024/02/02 06:51:23;;;;;;;17.30;3.97;;;5.40;99.90;;;;;;5053730;28;20398;-49
2024/02/02 06:53:51;;;;;;;16.27;3.90;;;5.50;99.90;;;;;;5053414;28;20064;-50
2024/02/02 06:56:34;;;;;;;15.57;4.17;;;5.40;99.90;;;;;;5053463;28;20032;-50
2024/02/02 06:58:59;;;;;;;12.73;3.33;;;5.40;99.90;;;;;;5053282;28;20047;-52
2024/02/02 07:01:25;;;;;;;12.37;3.13;;;5.40;99.90;;;;;;5052207;28;20217;-49
2024/02/02 07:03:51;;;;;;;18.10;3.00;;;5.40;99.90;;;;;;5053419;28;20036;-49
2024/02/02 07:06:17;;;;;;;15.40;4.13;;;5.40;99.90;;;;;;5053029;28;20025;-50
2024/02/02 07:08:42;;;;;;;19.53;4.20;;;5.40;99.90;;;;;;5053199;28;20374;-50
2024/02/02 07:11:42;;;;;;;14.73;3.60;;;5.40;99.90;;;;;;5053092;28;20086;-51
2024/02/02 07:14:09;;;;;;;13.60;3.03;;;5.40;99.90;;;;;;5053482;28;20045;-53
2024/02/02 07:16:36;;;;;;;15.87;3.20;;;5.40;99.90;;;;;;5053034;28;20025;-50
2024/02/02 07:19:03;;;;;;;14.23;3.10;;;5.40;99.90;;;;;;5052822;28;20029;-55
2024/02/02 07:21:33;;;;;;;16.10;3.10;;;5.50;99.90;;;;;;5051489;28;20481;-54
2024/02/02 07:23:59;;;;;;;12.90;2.97;;;5.40;99.90;;;;;;5052783;28;20124;-53
2024/02/02 07:26:31;;;;;;;8.07;2.87;;;5.50;99.90;;;;;;5052664;28;20064;-54
2024/02/02 07:28:57;;;;;;;12.00;2.87;;;5.40;99.90;;;;;;5052644;28;20036;-52
2024/02/02 07:31:37;;;;;;;8.63;2.73;;;5.50;99.90;;;;;;5052853;28;20048;-54
2024/02/02 07:34:48;;;;;;;14.93;2.75;;;5.50;99.90;;;;;;5052554;28;20147;-53
2024/02/02 07:37:47;;;;;;;15.40;3.17;;;5.40;99.90;;;;;;5051136;28;20375;-54
2024/02/02 07:40:35;;;;;;;15.83;3.83;;;5.40;99.90;;;;;;5050271;28;20048;-54
2024/02/02 07:43:00;;;;;;;12.27;2.97;;;5.30;99.90;;;;;;5052637;28;20029;-52
2024/02/02 07:45:26;;;;;;;9.23;3.07;;;5.40;99.90;;;;;;5052649;28;20170;-54
2024/02/02 07:47:52;;;;;;;10.73;2.50;;;5.40;99.90;;;;;;5052386;28;20110;-54
2024/02/02 07:50:17;;;;;;;9.73;3.03;;;5.40;99.90;;;;;;5052484;28;20040;-54
2024/02/02 07:52:43;;;;;;;12.33;2.83;;;5.50;99.90;;;;;;5052357;28;20033;-54
2024/02/02 07:55:09;;;;;;;11.33;3.20;;;5.50;99.90;;;;;;5051061;28;20486;-53
2024/02/02 07:57:34;;;;;;;15.93;2.63;;;5.50;99.90;;;;;;5052227;28;20027;-50
2024/02/02 08:00:00;;;;;;;13.20;3.13;;;5.60;99.90;;;;;;5052146;28;20021;-53
2024/02/02 08:02:25;;;;;;;17.33;3.00;;;5.60;99.90;;;;;;5051727;28;20449;-54
2024/02/02 08:04:51;;;;;;;6.70;2.43;;;5.70;99.90;;;;;;5052213;28;20033;-54
2024/02/02 08:07:17;;;;;;;7.67;2.57;;;5.80;99.90;;;;;;5050909;28;20044;-55
2024/02/02 08:09:42;;;;;;;13.93;3.27;;;5.90;99.90;;;;;;5052130;28;20028;-51
2024/02/02 08:12:08;;;;;;;8.70;2.93;;;6.00;99.90;;;;;;5052229;28;20029;-54
2024/02/02 08:14:35;;;;;;;13.13;2.77;;;6.00;99.90;;;;;;5052049;28;20511;-53
2024/02/02 08:17:00;;;;;;;12.17;2.53;;;6.20;99.90;;;;;;5051969;28;20414;-54
2024/02/02 08:19:27;;;;;;;12.40;3.10;;;6.30;99.90;;;;;;5052117;28;20025;-51
2024/02/02 08:21:55;;;;;;;14.03;3.13;;;6.40;99.90;;;;;;5052232;28;20041;-51
2024/02/02 08:24:21;;;;;;;15.95;3.85;;;6.40;99.90;;;;;;5052640;28;20441;-50
2024/02/02 08:26:46;;;;;;;11.97;3.03;;;6.40;99.90;;;;;;5052441;28;20060;-51
2024/02/02 08:29:12;;;;;;;13.80;2.60;;;6.40;99.90;;;;;;5052148;28;20386;-53
2024/02/02 08:31:40;;;;;;;10.67;2.73;;;6.50;99.90;;;;;;5052594;28;20041;-51
2024/02/02 08:34:05;;;;;;;12.67;3.60;;;6.60;99.90;;;;;;5052618;28;20243;-52
2024/02/02 08:36:31;;;;;;;9.90;2.50;;;6.60;99.90;;;;;;5053102;28;20149;-51
2024/02/02 08:38:56;;;;;;;15.80;3.27;;;6.60;99.90;;;;;;5053278;28;20160;-51
2024/02/02 08:41:22;;;;;;;10.63;2.80;;;6.60;99.90;;;;;;5053701;28;20478;-50
2024/02/02 08:43:49;;;;;;;10.97;2.40;;;6.70;99.90;;;;;;5053301;28;20041;-51
2024/02/02 08:46:19;;;;;;;11.17;2.83;;;6.70;99.90;;;;;;5053191;28;20475;-50
2024/02/02 08:48:50;;;;;;;7.07;1.90;;;6.80;99.90;;;;;;5051987;28;20040;-51
2024/02/02 08:51:22;;;;;;;7.90;2.47;;;6.80;99.90;;;;;;5051857;28;20040;-54
2024/02/02 08:54:09;;;;;;;8.50;2.13;;;6.80;99.90;;;;;;5052185;28;20040;-54
2024/02/02 08:56:35;;;;;;;8.50;2.40;;;6.90;99.90;;;;;;5054003;28;20029;-51
2024/02/02 08:59:08;;;;;;;9.27;2.07;;;7.10;99.90;;;;;;5055011;28;20028;-53
2024/02/02 09:01:41;;;;;;;9.57;2.20;;;7.30;99.90;;;;;;5052080;28;20033;-54
2024/02/02 09:04:36;;;;;;;8.83;2.07;;;7.40;99.90;;;;;;5051466;28;20393;-51
2024/02/02 09:07:03;;;;;;;10.10;2.70;;;7.50;99.90;;;;;;5051578;28;20036;-51
2024/02/02 09:09:29;;;;;;;10.40;2.87;;;7.80;99.90;;;;;;5051493;28;20036;-51
2024/02/02 09:11:55;;;;;;;12.37;2.07;;;7.90;99.90;;;;;;5051929;28;20032;-49
2024/02/02 09:14:23;;;;;;;9.70;2.57;;;8.10;99.90;;;;;;5055357;28;20044;-51
2024/02/02 09:16:52;;;;;;;10.80;3.00;;;8.00;99.90;;;;;;5053946;28;20401;-52
2024/02/02 09:19:26;;;;;;;10.83;2.30;;;8.10;99.90;;;;;;5055059;28;20067;-53
2024/02/02 09:22:04;;;;;;;7.70;1.60;;;8.10;99.90;;;;;;5053977;28;20056;-50
2024/02/02 09:24:38;;;;;;;7.30;1.90;;;8.10;99.90;;;;;;5053996;28;20032;-50
2024/02/02 09:27:07;;;;;;;10.40;2.70;;;8.20;99.90;;;;;;5054954;28;20060;-52
2024/02/02 09:29:33;;;;;;;9.02;2.90;;;8.20;99.90;;;;;;5054997;28;20041;-54
2024/02/02 09:31:59;;;;;;;12.40;2.63;;;8.20;99.90;;;;;;5055018;28;20036;-54
2024/02/02 09:34:25;;;;;;;9.20;1.90;;;8.20;99.90;;;;;;5054873;28;20525;-53
2024/02/02 09:36:53;;;;;;;15.10;2.50;;;8.30;99.90;;;;;;5054635;28;20056;-53
2024/02/02 09:39:44;;;;;;;10.17;2.13;;;8.20;99.90;;;;;;5054809;28;20683;-54
2024/02/02 09:42:35;;;;;;;20.03;2.70;;;8.40;99.90;;;;;;5054836;28;20025;-54
2024/02/02 09:45:22;;;;;;;8.17;2.03;;;8.40;99.90;;;;;;5054817;28;20421;-52
2024/02/02 09:48:07;;;;;;;12.00;2.60;;;8.50;99.90;;;;;;5054703;28;20438;-52
2024/02/02 09:50:58;;;;;;;10.80;2.20;;;8.60;99.90;;;;;;5054735;28;20398;-54
2024/02/02 09:53:36;;;;;;;9.47;2.70;;;8.60;99.90;;;;;;5054603;28;20497;-50
2024/02/02 09:56:12;;;;;;;8.57;2.17;;;8.90;99.90;;;;;;5054629;28;20037;-52
2024/02/02 09:58:51;;;;;;;10.77;2.67;;;9.10;99.90;;;;;;5054415;28;20029;-50
2024/02/02 10:01:29;;;;;;;;;;;9.20;99.90;;;;;;5055087;28;20056;-53
2024/02/02 10:03:57;;;;;;;9.47;2.23;;;9.30;99.90;;;;;;5054308;28;19909;-53
2024/02/02 10:06:31;;;;;;;12.53;2.03;;;9.40;99.90;;;;;;5054403;28;20064;-54
2024/02/02 10:08:57;;;;;;;8.80;2.10;;;9.40;99.90;;;;;;5054306;28;20043;-50
2024/02/02 10:11:34;;;;;;;13.13;3.27;;;9.70;99.90;;;;;;5054237;28;20043;-55
2024/02/02 10:14:22;;;;;;;10.13;2.60;;;10.10;99.90;;;;;;5054210;28;20028;-52
2024/02/02 10:17:03;;;;;;;8.00;2.20;;;10.20;99.90;;;;;;5054132;28;20037;-51
2024/02/02 10:19:50;;;;;;;6.80;2.00;;;10.50;99.90;;;;;;5054654;28;20516;-55
2024/02/02 10:22:28;;;;;;;8.73;2.00;;;10.80;99.90;;;;;;5054031;28;20021;-52
2024/02/02 10:25:11;;;;;;;8.90;2.55;;;11.30;99.90;;;;;;5053113;28;20041;-51
2024/02/02 10:27:45;;;;;;;7.77;2.83;;;11.50;99.90;;;;;;5054026;28;20037;-54
2024/02/02 10:30:26;;;;;;;8.47;2.37;;;11.90;99.90;;;;;;5053878;28;20585;-54
2024/02/02 10:33:14;;;;;;;12.88;3.28;;;12.20;99.90;;;;;;5054048;28;20072;-52
2024/02/02 10:35:58;;;;;;;11.13;2.65;;;12.70;99.90;;;;;;5053856;28;20033;-51
2024/02/02 10:38:32;;;;;;;9.57;2.53;;;12.80;99.90;;;;;;5053820;28;20094;-52
2024/02/02 10:41:04;;;;;;;11.02;2.55;;;13.00;99.90;;;;;;5052462;28;20029;-50
2024/02/02 10:44:03;;;;;;;8.93;2.75;;;12.70;99.90;;;;;;5053420;28;20029;-52
2024/02/02 10:46:54;;;;;;;10.57;2.58;;;12.20;99.90;;;;;;5052096;28;20024;-53
2024/02/02 10:49:34;;;;;;;7.85;2.72;;;11.60;99.90;;;;;;5053713;28;20025;-52
2024/02/02 10:52:16;;;;;;;14.70;3.03;;;11.00;99.90;;;;;;5053671;28;20056;-52
2024/02/02 10:54:51;;;;;;;8.93;2.50;;;10.60;99.90;;;;;;5053532;28;20444;-52
2024/02/02 10:57:32;;;;;;;8.57;2.60;;;10.40;99.90;;;;;;5053346;28;20029;-54
2024/02/02 11:00:15;;;;;;;18.50;6.07;;;10.20;99.90;;;;;;5053465;28;20259;-54
2024/02/02 11:03:01;;;;;;;15.87;6.57;;;10.20;99.90;;;;;;5053323;28;20397;-51
2024/02/02 11:05:40;;;;;;;15.27;3.50;;;10.10;99.90;;;;;;5041350;28;20047;-53
2024/02/02 11:08:11;;;;;;;7.95;2.70;;;10.10;99.90;;;;;;5053172;28;20079;-53
2024/02/02 11:10:57;;;;;;;8.50;2.70;;;10.20;99.90;;;;;;5053594;28;20043;-52
2024/02/02 11:13:47;;;;;;;9.83;2.63;;;10.20;99.90;;;;;;5053090;28;20037;-53
2024/02/02 11:16:52;;;;;;;9.57;2.43;;;10.50;99.90;;;;;;5053079;28;20123;-54
2024/02/02 11:19:35;;;;;;;8.07;2.67;;;10.90;99.90;;;;;;5052601;28;20049;-54
2024/02/02 11:22:25;;;;;;;11.60;2.67;;;11.20;99.90;;;;;;5053033;28;20024;-53
2024/02/02 11:25:03;;;;;;;11.67;2.70;;;11.40;99.90;;;;;;5052761;28;20025;-54
2024/02/02 11:27:48;;;;;;;13.53;2.50;;;11.50;99.90;;;;;;5052772;28;20037;-53
2024/02/02 11:30:46;;;;;;;10.93;2.40;;;11.40;99.90;;;;;;5052954;28;20434;-53
2024/02/02 11:33:32;;;;;;;8.73;2.30;;;11.40;99.90;;;;;;5052702;28;20116;-50
2024/02/02 11:36:10;;;;;;;10.03;2.60;;;11.40;99.90;;;;;;5052684;28;20382;-51
2024/02/02 11:39:00;;;;;;;8.67;2.90;;;11.40;99.90;;;;;;5052473;28;20037;-51
2024/02/02 11:41:27;;;;;;;;;;;11.20;99.90;;;;;;5053139;28;20554;-50
2024/02/02 11:43:53;;;;;;;8.77;2.53;;;11.20;99.90;;;;;;5052549;28;19908;-50
2024/02/02 11:46:23;;;;;;;11.13;3.20;;;11.10;99.90;;;;;;5052295;28;20146;-53
2024/02/02 11:48:52;;;;;;;7.63;2.80;;;10.70;99.90;;;;;;5052769;28;20032;-50
2024/02/02 11:51:20;;;;;;;11.50;3.35;;;10.50;99.90;;;;;;5052288;28;20106;-52
2024/02/02 11:54:06;;;;;;;10.87;2.57;;;10.20;99.90;;;;;;5050941;28;20482;-52
2024/02/02 11:56:44;;;;;;;9.13;2.50;;;10.20;99.90;;;;;;5050958;28;20037;-49
2024/02/02 11:59:43;;;;;;;7.65;2.75;;;10.40;99.90;;;;;;5052178;28;20033;-53
2024/02/02 12:02:41;;;;;;;6.55;2.42;;;10.40;99.90;;;;;;5052301;28;20032;-52
2024/02/02 12:05:24;;;;;;;7.27;2.50;;;10.70;99.90;;;;;;5032673;28;20067;-52
2024/02/02 12:08:26;;;;;;;8.93;2.87;;;11.10;99.90;;;;;;5050946;28;20025;-49
2024/02/02 12:10:53;;;;;;;11.67;2.50;;;11.00;99.90;;;;;;5052016;28;20120;-53
2024/02/02 12:13:32;;;;;;;10.43;2.67;;;10.70;99.90;;;;;;5050628;28;20065;-54
2024/02/02 12:15:58;;;;;;;10.77;3.40;;;10.50;99.90;;;;;;5052088;28;20087;-53
2024/02/02 12:18:25;;;;;;;9.63;2.70;;;10.40;99.90;;;;;;5051954;28;20478;-53
2024/02/02 12:20:50;;;;;;;9.50;3.40;;;10.40;99.90;;;;;;5050718;28;20078;-51
2024/02/02 12:23:16;;;;;;;8.50;2.93;;;10.20;99.90;;;;;;5051780;28;20021;-53
2024/02/02 12:25:42;;;;;;;11.13;4.10;;;10.00;99.90;;;;;;5051893;28;20434;-53
2024/02/02 12:28:08;;;;;;;9.57;3.27;;;9.90;99.90;;;;;;5051643;28;20037;-55
2024/02/02 12:30:34;;;;;;;13.37;4.90;;;9.70;99.90;;;;;;5051913;28;20129;-52
2024/02/02 12:33:03;;;;;;;19.10;7.10;;;9.60;99.90;;;;;;5051780;28;20573;-55
2024/02/02 12:35:29;;;;;;;11.32;3.63;;;9.50;99.90;;;;;;5051754;28;20036;-51
2024/02/02 12:37:55;;;;;;;14.00;3.50;;;9.50;99.90;;;;;;5033896;28;20029;-54
2024/02/02 12:40:22;;;;;;;14.37;3.23;;;9.40;99.90;;;;;;5051871;28;20167;-54
2024/02/02 12:42:48;;;;;;;8.93;3.07;;;9.40;99.90;;;;;;5051637;28;20033;-54
2024/02/02 12:45:14;;;;;;;13.03;3.63;;;9.40;99.90;;;;;;5051770;28;20394;-55
2024/02/02 12:47:41;;;;;;;10.80;3.60;;;9.30;99.90;;;;;;5053394;28;20040;-55
2024/02/02 12:50:14;;;;;;;7.40;3.03;;;9.20;99.90;;;;;;5055732;28;20496;-54
2024/02/02 12:52:42;;;;;;;10.87;3.40;;;9.00;99.90;;;;;;5055726;28;20037;-53
2024/02/02 12:55:08;;;;;;;11.60;3.33;;;9.00;99.90;;;;;;5055759;28;20178;-52
2024/02/02 12:57:36;;;;;;;10.00;3.70;;;9.00;99.90;;;;;;5055611;28;20508;-54
2024/02/02 13:00:03;;;;;;;12.87;3.63;;;9.10;99.90;;;;;;5055712;28;20036;-54
2024/02/02 13:02:29;;;;;;;10.80;4.00;;;9.20;99.90;;;;;;5055761;28;20068;-54